sensor_id;sensor_type;location;lat;lon;timestamp;temperature;humidity
19952;DHT22;10137;49.406;19.484;2022-09-09T00:02:19;16.90;99.90
19952;DHT22;10137;49.406;19.484;2022-09-09T00:04:57;16.90;99.90
19952;DHT22;10137;49.406;19.484;2022-09-09T00:07:38;16.90;99.90
19952;DHT22;10137;49.406;19.484;2022-09-09T00:10:16;16.90;99.90
19952;DHT22;10137;49.406;19.484;2022-09-09T00:12:55;16.90;99.90
19952;DHT22;10137;49.406;19.484;2022-09-09T00:15:28;16.90;99.90
19952;DHT22;10137;49.406;19.484;2022-09-09T00:18:03;16.90;99.90
19952;DHT22;10137;49.406;19.484;2022-09-09T00:20:42;16.80;99.90
19952;DHT22;10137;49.406;19.484;2022-09-09T00:23:19;16.80;99.90
19952;DHT22;10137;49.406;19.484;2022-09-09T00:25:52;16.60;99.90
19952;DHT22;10137;49.406;19.484;2022-09-09T00:28:24;16.70;99.90
19952;DHT22;10137;49.406;19.484;2022-09-09T00:30:52;16.70;99.90
19952;DHT22;10137;49.406;19.484;2022-09-09T00:33:23;16.50;99.90
19952;DHT22;10137;49.406;19.484;2022-09-09T00:35:54;16.60;99.90
19952;DHT22;10137;49.406;19.484;2022-09-09T00:38:31;16.50;99.90
19952;DHT22;10137;49.406;19.484;2022-09-09T00:41:05;16.40;99.90
19952;DHT22;10137;49.406;19.484;2022-09-09T00:43:38;16.40;99.90
19952;DHT22;10137;49.406;19.484;2022-09-09T00:46:28;16.40;99.90
19952;DHT22;10137;49.406;19.484;2022-09-09T00:49:05;16.40;99.90
19952;DHT22;10137;49.406;19.484;2022-09-09T00:51:44;16.30;99.90
19952;DHT22;10137;49.406;19.484;2022-09-09T00:54:31;16.20;99.90
19952;DHT22;10137;49.406;19.484;2022-09-09T00:57:12;16.20;99.90
19952;DHT22;10137;49.406;19.484;2022-09-09T00:59:46;16.20;99.90
19952;DHT22;10137;49.406;19.484;2022-09-09T01:02:25;16.20;99.90
19952;DHT22;10137;49.406;19.484;2022-09-09T01:04:58;16.30;99.90
19952;DHT22;10137;49.406;19.484;2022-09-09T01:07:27;16.30;99.90
19952;DHT22;10137;49.406;19.484;2022-09-09T01:09:57;16.20;99.90
19952;DHT22;10137;49.406;19.484;2022-09-09T01:12:28;16.30;99.90
19952;DHT22;10137;49.406;19.484;2022-09-09T01:15:03;16.20;99.90
19952;DHT22;10137;49.406;19.484;2022-09-09T01:17:38;16.30;99.90
19952;DHT22;10137;49.406;19.484;2022-09-09T01:20:10;16.30;99.90
19952;DHT22;10137;49.406;19.484;2022-09-09T01:22:47;16.10;99.90
19952;DHT22;10137;49.406;19.484;2022-09-09T01:25:30;16.10;99.90
19952;DHT22;10137;49.406;19.484;2022-09-09T01:28:00;16.00;99.90
19952;DHT22;10137;49.406;19.484;2022-09-09T01:30:29;16.00;99.90
19952;DHT22;10137;49.406;19.484;2022-09-09T01:32:58;15.90;99.90
19952;DHT22;10137;49.406;19.484;2022-09-09T01:35:41;15.90;99.90
19952;DHT22;10137;49.406;19.484;2022-09-09T01:38:09;15.90;99.90
19952;DHT22;10137;49.406;19.484;2022-09-09T01:40:38;15.90;99.90
19952;DHT22;10137;49.406;19.484;2022-09-09T01:43:07;15.90;99.90
19952;DHT22;10137;49.406;19.484;2022-09-09T01:45:35;15.80;99.90
19952;DHT22;10137;49.406;19.484;2022-09-09T01:48:02;15.90;99.90
19952;DHT22;10137;49.406;19.484;2022-09-09T01:50:31;16.00;99.90
19952;DHT22;10137;49.406;19.484;2022-09-09T01:52:59;16.00;99.90
19952;DHT22;10137;49.406;19.484;2022-09-09T01:55:30;16.00;99.90
19952;DHT22;10137;49.406;19.484;2022-09-09T01:58:14;16.10;99.90
19952;DHT22;10137;49.406;19.484;2022-09-09T02:00:51;16.00;99.90
19952;DHT22;10137;49.406;19.484;2022-09-09T02:03:23;16.00;99.90
19952;DHT22;10137;49.406;19.484;2022-09-09T02:06:00;16.00;99.90
19952;DHT22;10137;49.406;19.484;2022-09-09T02:08:38;16.00;99.90
19952;DHT22;10137;49.406;19.484;2022-09-09T02:11:10;16.10;99.90
19952;DHT22;10137;49.406;19.484;2022-09-09T02:13:42;16.00;99.90
19952;DHT22;10137;49.406;19.484;2022-09-09T02:16:14;16.00;99.90
19952;DHT22;10137;49.406;19.484;2022-09-09T02:18:48;16.00;99.90
19952;DHT22;10137;49.406;19.484;2022-09-09T02:21:18;16.00;99.90
19952;DHT22;10137;49.406;19.484;2022-09-09T02:23:50;15.90;99.90
19952;DHT22;10137;49.406;19.484;2022-09-09T02:26:19;15.80;99.90
19952;DHT22;10137;49.406;19.484;2022-09-09T02:28:51;15.80;99.90
19952;DHT22;10137;49.406;19.484;2022-09-09T02:31:22;15.80;99.90
19952;DHT22;10137;49.406;19.484;2022-09-09T02:33:53;15.80;99.90
19952;DHT22;10137;49.406;19.484;2022-09-09T02:36:24;15.70;99.90
19952;DHT22;10137;49.406;19.484;2022-09-09T02:38:52;15.80;99.90
19952;DHT22;10137;49.406;19.484;2022-09-09T02:41:22;15.60;99.90
19952;DHT22;10137;49.406;19.484;2022-09-09T02:43:53;15.60;99.90
19952;DHT22;10137;49.406;19.484;2022-09-09T02:46:45;15.60;99.90
19952;DHT22;10137;49.406;19.484;2022-09-09T02:49:19;15.60;99.90
19952;DHT22;10137;49.406;19.484;2022-09-09T02:51:55;15.60;99.90
19952;DHT22;10137;49.406;19.484;2022-09-09T02:54:30;15.50;99.90
19952;DHT22;10137;49.406;19.484;2022-09-09T02:57:02;15.50;99.90
19952;DHT22;10137;49.406;19.484;2022-09-09T02:59:33;15.50;99.90
19952;DHT22;10137;49.406;19.484;2022-09-09T03:02:01;15.50;99.90
19952;DHT22;10137;49.406;19.484;2022-09-09T03:04:29;15.60;99.90
19952;DHT22;10137;49.406;19.484;2022-09-09T03:06:58;15.60;99.90
19952;DHT22;10137;49.406;19.484;2022-09-09T03:09:25;15.60;99.90
19952;DHT22;10137;49.406;19.484;2022-09-09T03:11:52;15.60;99.90
19952;DHT22;10137;49.406;19.484;2022-09-09T03:14:20;15.60;99.90
19952;DHT22;10137;49.406;19.484;2022-09-09T03:16:52;15.60;99.90
19952;DHT22;10137;49.406;19.484;2022-09-09T03:19:20;15.60;99.90
19952;DHT22;10137;49.406;19.484;2022-09-09T03:21:47;15.60;99.90
19952;DHT22;10137;49.406;19.484;2022-09-09T03:24:16;15.70;99.90
19952;DHT22;10137;49.406;19.484;2022-09-09T03:26:43;15.70;99.90
19952;DHT22;10137;49.406;19.484;2022-09-09T03:29:11;15.60;99.90
19952;DHT22;10137;49.406;19.484;2022-09-09T03:31:40;15.60;99.90
19952;DHT22;10137;49.406;19.484;2022-09-09T03:34:14;15.70;99.90
19952;DHT22;10137;49.406;19.484;2022-09-09T03:36:41;15.70;99.90
19952;DHT22;10137;49.406;19.484;2022-09-09T03:39:09;15.80;99.90
19952;DHT22;10137;49.406;19.484;2022-09-09T03:41:36;15.70;99.90
19952;DHT22;10137;49.406;19.484;2022-09-09T03:44:05;15.70;99.90
19952;DHT22;10137;49.406;19.484;2022-09-09T03:46:32;15.60;99.90
19952;DHT22;10137;49.406;19.484;2022-09-09T03:48:59;15.70;99.90
19952;DHT22;10137;49.406;19.484;2022-09-09T03:51:29;15.60;99.90
19952;DHT22;10137;49.406;19.484;2022-09-09T03:53:57;15.70;99.90
19952;DHT22;10137;49.406;19.484;2022-09-09T03:56:25;15.60;99.90
19952;DHT22;10137;49.406;19.484;2022-09-09T03:58:52;15.70;99.90
19952;DHT22;10137;49.406;19.484;2022-09-09T04:01:20;15.60;99.90
19952;DHT22;10137;49.406;19.484;2022-09-09T04:03:47;15.60;99.90
19952;DHT22;10137;49.406;19.484;2022-09-09T04:06:15;15.60;99.90
19952;DHT22;10137;49.406;19.484;2022-09-09T04:08:46;15.60;99.90
19952;DHT22;10137;49.406;19.484;2022-09-09T04:11:15;15.60;99.90
19952;DHT22;10137;49.406;19.484;2022-09-09T04:13:43;15.60;99.90
19952;DHT22;10137;49.406;19.484;2022-09-09T04:16:12;15.60;99.90
19952;DHT22;10137;49.406;19.484;2022-09-09T04:18:43;15.70;99.90
19952;DHT22;10137;49.406;19.484;2022-09-09T04:21:10;15.70;99.90
19952;DHT22;10137;49.406;19.484;2022-09-09T04:23:39;15.70;99.90
19952;DHT22;10137;49.406;19.484;2022-09-09T04:26:09;15.70;99.90
19952;DHT22;10137;49.406;19.484;2022-09-09T04:28:37;15.70;99.90
19952;DHT22;10137;49.406;19.484;2022-09-09T04:31:06;15.70;99.90
19952;DHT22;10137;49.406;19.484;2022-09-09T04:33:36;15.70;99.90
19952;DHT22;10137;49.406;19.484;2022-09-09T04:36:06;15.70;99.90
19952;DHT22;10137;49.406;19.484;2022-09-09T04:38:35;15.70;99.90
19952;DHT22;10137;49.406;19.484;2022-09-09T04:41:03;15.70;99.90
19952;DHT22;10137;49.406;19.484;2022-09-09T04:43:32;15.70;99.90
19952;DHT22;10137;49.406;19.484;2022-09-09T04:46:01;15.70;99.90
19952;DHT22;10137;49.406;19.484;2022-09-09T04:48:29;15.60;99.90
19952;DHT22;10137;49.406;19.484;2022-09-09T04:51:02;15.60;99.90
19952;DHT22;10137;49.406;19.484;2022-09-09T04:53:36;15.50;99.90
19952;DHT22;10137;49.406;19.484;2022-09-09T04:56:06;15.50;99.90
19952;DHT22;10137;49.406;19.484;2022-09-09T04:58:36;15.50;99.90
19952;DHT22;10137;49.406;19.484;2022-09-09T05:01:07;15.60;99.90
19952;DHT22;10137;49.406;19.484;2022-09-09T05:03:37;15.60;99.90
19952;DHT22;10137;49.406;19.484;2022-09-09T05:06:07;15.60;99.90
19952;DHT22;10137;49.406;19.484;2022-09-09T05:08:36;15.60;99.90
19952;DHT22;10137;49.406;19.484;2022-09-09T05:11:12;15.60;99.90
19952;DHT22;10137;49.406;19.484;2022-09-09T05:13:41;15.60;99.90
19952;DHT22;10137;49.406;19.484;2022-09-09T05:16:08;15.60;99.90
19952;DHT22;10137;49.406;19.484;2022-09-09T05:18:37;15.50;99.90
19952;DHT22;10137;49.406;19.484;2022-09-09T05:21:04;15.50;99.90
19952;DHT22;10137;49.406;19.484;2022-09-09T05:23:31;15.60;99.90
19952;DHT22;10137;49.406;19.484;2022-09-09T05:26:00;15.60;99.90
19952;DHT22;10137;49.406;19.484;2022-09-09T05:28:27;15.70;99.90
19952;DHT22;10137;49.406;19.484;2022-09-09T05:31:01;15.90;99.90
19952;DHT22;10137;49.406;19.484;2022-09-09T05:33:29;16.00;99.90
19952;DHT22;10137;49.406;19.484;2022-09-09T05:35:57;16.10;99.90
19952;DHT22;10137;49.406;19.484;2022-09-09T05:38:25;16.30;99.90
19952;DHT22;10137;49.406;19.484;2022-09-09T05:40:52;16.40;99.90
19952;DHT22;10137;49.406;19.484;2022-09-09T05:43:19;16.50;99.90
19952;DHT22;10137;49.406;19.484;2022-09-09T05:46:01;16.60;99.90
19952;DHT22;10137;49.406;19.484;2022-09-09T05:48:29;16.70;99.90
19952;DHT22;10137;49.406;19.484;2022-09-09T05:50:57;16.60;99.90
19952;DHT22;10137;49.406;19.484;2022-09-09T05:53:25;16.70;99.90
19952;DHT22;10137;49.406;19.484;2022-09-09T05:55:59;16.70;99.90
19952;DHT22;10137;49.406;19.484;2022-09-09T05:58:27;16.80;99.90
19952;DHT22;10137;49.406;19.484;2022-09-09T06:01:02;17.00;99.90
19952;DHT22;10137;49.406;19.484;2022-09-09T06:03:30;17.30;99.90
19952;DHT22;10137;49.406;19.484;2022-09-09T06:05:58;17.50;99.90
19952;DHT22;10137;49.406;19.484;2022-09-09T06:08:25;17.60;99.90
19952;DHT22;10137;49.406;19.484;2022-09-09T06:10:52;17.60;99.90
19952;DHT22;10137;49.406;19.484;2022-09-09T06:13:19;17.40;99.90
19952;DHT22;10137;49.406;19.484;2022-09-09T06:15:50;17.40;99.90
19952;DHT22;10137;49.406;19.484;2022-09-09T06:18:19;17.30;99.90
19952;DHT22;10137;49.406;19.484;2022-09-09T06:20:54;17.30;99.90
19952;DHT22;10137;49.406;19.484;2022-09-09T06:23:21;17.40;99.90
19952;DHT22;10137;49.406;19.484;2022-09-09T06:25:48;17.40;99.90
19952;DHT22;10137;49.406;19.484;2022-09-09T06:28:16;17.30;99.90
19952;DHT22;10137;49.406;19.484;2022-09-09T06:30:43;17.30;99.90
19952;DHT22;10137;49.406;19.484;2022-09-09T06:33:11;17.30;99.90
19952;DHT22;10137;49.406;19.484;2022-09-09T06:35:39;17.20;99.90
19952;DHT22;10137;49.406;19.484;2022-09-09T06:38:09;17.30;99.90
19952;DHT22;10137;49.406;19.484;2022-09-09T06:40:36;17.40;99.90
19952;DHT22;10137;49.406;19.484;2022-09-09T06:43:03;17.50;99.90
19952;DHT22;10137;49.406;19.484;2022-09-09T06:45:30;17.50;99.90
19952;DHT22;10137;49.406;19.484;2022-09-09T06:47:57;17.50;99.90
19952;DHT22;10137;49.406;19.484;2022-09-09T06:50:24;17.70;99.90
19952;DHT22;10137;49.406;19.484;2022-09-09T06:52:53;17.90;99.90
19952;DHT22;10137;49.406;19.484;2022-09-09T06:55:20;18.10;99.90
19952;DHT22;10137;49.406;19.484;2022-09-09T06:57:47;18.40;99.90
19952;DHT22;10137;49.406;19.484;2022-09-09T07:00:14;18.60;99.90
19952;DHT22;10137;49.406;19.484;2022-09-09T07:02:41;18.90;99.90
19952;DHT22;10137;49.406;19.484;2022-09-09T07:05:08;19.00;99.90
19952;DHT22;10137;49.406;19.484;2022-09-09T07:07:36;19.20;99.90
19952;DHT22;10137;49.406;19.484;2022-09-09T07:10:05;19.30;99.90
19952;DHT22;10137;49.406;19.484;2022-09-09T07:12:33;19.10;99.90
19952;DHT22;10137;49.406;19.484;2022-09-09T07:15:00;19.20;99.90
19952;DHT22;10137;49.406;19.484;2022-09-09T07:17:27;19.20;99.90
19952;DHT22;10137;49.406;19.484;2022-09-09T07:19:54;19.30;99.90
19952;DHT22;10137;49.406;19.484;2022-09-09T07:22:22;19.40;99.90
19952;DHT22;10137;49.406;19.484;2022-09-09T07:24:50;19.30;99.90
19952;DHT22;10137;49.406;19.484;2022-09-09T07:27:18;19.10;99.90
19952;DHT22;10137;49.406;19.484;2022-09-09T07:29:46;18.90;99.90
19952;DHT22;10137;49.406;19.484;2022-09-09T07:32:14;18.80;99.90
19952;DHT22;10137;49.406;19.484;2022-09-09T07:34:43;18.70;99.90
19952;DHT22;10137;49.406;19.484;2022-09-09T07:37:14;18.70;99.90
19952;DHT22;10137;49.406;19.484;2022-09-09T07:39:41;18.70;99.90
19952;DHT22;10137;49.406;19.484;2022-09-09T07:42:08;18.80;99.90
19952;DHT22;10137;49.406;19.484;2022-09-09T07:44:38;19.40;99.90
19952;DHT22;10137;49.406;19.484;2022-09-09T07:47:05;19.70;99.90
19952;DHT22;10137;49.406;19.484;2022-09-09T07:49:33;20.10;99.90
19952;DHT22;10137;49.406;19.484;2022-09-09T07:52:00;20.30;99.90
19952;DHT22;10137;49.406;19.484;2022-09-09T07:54:27;20.50;99.90
19952;DHT22;10137;49.406;19.484;2022-09-09T07:56:55;20.70;99.90
19952;DHT22;10137;49.406;19.484;2022-09-09T07:59:22;21.00;99.90
19952;DHT22;10137;49.406;19.484;2022-09-09T08:01:52;21.10;99.90
19952;DHT22;10137;49.406;19.484;2022-09-09T08:04:21;21.40;99.90
19952;DHT22;10137;49.406;19.484;2022-09-09T08:06:51;21.60;99.90
19952;DHT22;10137;49.406;19.484;2022-09-09T08:09:20;21.70;99.90
19952;DHT22;10137;49.406;19.484;2022-09-09T08:11:47;21.80;99.90
19952;DHT22;10137;49.406;19.484;2022-09-09T08:14:14;22.30;99.90
19952;DHT22;10137;49.406;19.484;2022-09-09T08:16:43;22.40;99.90
19952;DHT22;10137;49.406;19.484;2022-09-09T08:19:13;22.30;99.90
19952;DHT22;10137;49.406;19.484;2022-09-09T08:21:42;22.20;99.90
19952;DHT22;10137;49.406;19.484;2022-09-09T08:24:10;22.50;99.90
19952;DHT22;10137;49.406;19.484;2022-09-09T08:26:39;22.60;99.90
19952;DHT22;10137;49.406;19.484;2022-09-09T08:29:08;22.60;99.90
19952;DHT22;10137;49.406;19.484;2022-09-09T08:31:40;22.80;99.90
19952;DHT22;10137;49.406;19.484;2022-09-09T08:34:12;22.70;99.90
19952;DHT22;10137;49.406;19.484;2022-09-09T08:36:42;23.10;99.90
19952;DHT22;10137;49.406;19.484;2022-09-09T08:39:10;23.40;99.90
19952;DHT22;10137;49.406;19.484;2022-09-09T08:42:06;23.70;99.90
19952;DHT22;10137;49.406;19.484;2022-09-09T08:47:38;24.60;99.90
19952;DHT22;10137;49.406;19.484;2022-09-09T08:50:19;24.80;99.90
19952;DHT22;10137;49.406;19.484;2022-09-09T08:52:54;25.20;99.90
19952;DHT22;10137;49.406;19.484;2022-09-09T08:55:28;25.20;99.90
19952;DHT22;10137;49.406;19.484;2022-09-09T08:57:58;25.40;99.90
19952;DHT22;10137;49.406;19.484;2022-09-09T09:00:33;25.50;99.90
19952;DHT22;10137;49.406;19.484;2022-09-09T09:03:12;25.50;99.90
19952;DHT22;10137;49.406;19.484;2022-09-09T09:05:47;25.70;99.90
19952;DHT22;10137;49.406;19.484;2022-09-09T09:08:24;26.00;99.90
19952;DHT22;10137;49.406;19.484;2022-09-09T09:10:56;26.10;99.90
19952;DHT22;10137;49.406;19.484;2022-09-09T09:13:32;25.90;99.90
19952;DHT22;10137;49.406;19.484;2022-09-09T09:16:22;25.50;99.90
19952;DHT22;10137;49.406;19.484;2022-09-09T09:18:52;25.30;99.90
19952;DHT22;10137;49.406;19.484;2022-09-09T09:21:32;25.10;99.90
19952;DHT22;10137;49.406;19.484;2022-09-09T09:24:01;25.00;99.90
19952;DHT22;10137;49.406;19.484;2022-09-09T09:26:33;25.10;99.90
19952;DHT22;10137;49.406;19.484;2022-09-09T09:29:03;25.10;99.90
19952;DHT22;10137;49.406;19.484;2022-09-09T09:31:35;25.30;99.60
19952;DHT22;10137;49.406;19.484;2022-09-09T09:34:02;25.40;99.90
19952;DHT22;10137;49.406;19.484;2022-09-09T09:36:40;25.40;98.70
19952;DHT22;10137;49.406;19.484;2022-09-09T09:39:08;25.40;99.90
19952;DHT22;10137;49.406;19.484;2022-09-09T09:41:36;25.60;97.20
19952;DHT22;10137;49.406;19.484;2022-09-09T09:44:05;25.60;95.90
19952;DHT22;10137;49.406;19.484;2022-09-09T09:46:33;25.50;94.50
19952;DHT22;10137;49.406;19.484;2022-09-09T09:49:01;25.50;95.30
19952;DHT22;10137;49.406;19.484;2022-09-09T09:51:30;25.70;96.20
19952;DHT22;10137;49.406;19.484;2022-09-09T09:54:16;25.90;95.20
19952;DHT22;10137;49.406;19.484;2022-09-09T09:56:45;26.00;96.40
19952;DHT22;10137;49.406;19.484;2022-09-09T09:59:24;26.00;95.50
19952;DHT22;10137;49.406;19.484;2022-09-09T10:02:17;26.00;96.80
19952;DHT22;10137;49.406;19.484;2022-09-09T10:04:44;25.90;97.10
19952;DHT22;10137;49.406;19.484;2022-09-09T10:07:13;25.90;96.20
19952;DHT22;10137;49.406;19.484;2022-09-09T10:09:43;25.70;95.00
19952;DHT22;10137;49.406;19.484;2022-09-09T10:12:18;25.60;95.00
19952;DHT22;10137;49.406;19.484;2022-09-09T10:14:52;25.70;96.30
19952;DHT22;10137;49.406;19.484;2022-09-09T10:17:26;25.40;94.10
19952;DHT22;10137;49.406;19.484;2022-09-09T10:20:12;25.40;95.00
19952;DHT22;10137;49.406;19.484;2022-09-09T10:22:47;25.40;94.20
19952;DHT22;10137;49.406;19.484;2022-09-09T10:25:40;25.30;94.10
19952;DHT22;10137;49.406;19.484;2022-09-09T10:28:31;25.20;95.60
19952;DHT22;10137;49.406;19.484;2022-09-09T10:31:09;25.20;95.50
19952;DHT22;10137;49.406;19.484;2022-09-09T10:33:49;25.10;93.60
19952;DHT22;10137;49.406;19.484;2022-09-09T10:36:20;25.00;92.80
19952;DHT22;10137;49.406;19.484;2022-09-09T10:38:53;25.00;93.90
19952;DHT22;10137;49.406;19.484;2022-09-09T10:41:40;25.10;94.70
19952;DHT22;10137;49.406;19.484;2022-09-09T10:50:40;25.30;93.60
19952;DHT22;10137;49.406;19.484;2022-09-09T10:53:16;25.20;90.90
19952;DHT22;10137;49.406;19.484;2022-09-09T10:55:50;25.30;92.30
19952;DHT22;10137;49.406;19.484;2022-09-09T10:58:25;25.10;90.30
19952;DHT22;10137;49.406;19.484;2022-09-09T11:00:57;24.90;90.60
19952;DHT22;10137;49.406;19.484;2022-09-09T11:03:28;24.90;92.30
19952;DHT22;10137;49.406;19.484;2022-09-09T11:05:59;24.90;92.80
19952;DHT22;10137;49.406;19.484;2022-09-09T11:08:29;25.10;91.40
19952;DHT22;10137;49.406;19.484;2022-09-09T11:10:58;24.90;91.00
19952;DHT22;10137;49.406;19.484;2022-09-09T11:13:34;25.10;93.50
19952;DHT22;10137;49.406;19.484;2022-09-09T11:16:20;25.40;92.00
19952;DHT22;10137;49.406;19.484;2022-09-09T11:18:49;25.20;90.70
19952;DHT22;10137;49.406;19.484;2022-09-09T11:21:21;24.90;83.60
19952;DHT22;10137;49.406;19.484;2022-09-09T11:23:53;24.80;87.30
19952;DHT22;10137;49.406;19.484;2022-09-09T11:26:30;24.60;84.20
19952;DHT22;10137;49.406;19.484;2022-09-09T11:32:08;24.20;92.30
19952;DHT22;10137;49.406;19.484;2022-09-09T11:34:49;24.10;91.10
19952;DHT22;10137;49.406;19.484;2022-09-09T11:37:39;24.00;91.70
19952;DHT22;10137;49.406;19.484;2022-09-09T11:40:22;23.90;91.70
19952;DHT22;10137;49.406;19.484;2022-09-09T11:43:02;23.90;91.50
19952;DHT22;10137;49.406;19.484;2022-09-09T11:45:33;23.80;91.70
19952;DHT22;10137;49.406;19.484;2022-09-09T11:48:03;23.60;91.50
19952;DHT22;10137;49.406;19.484;2022-09-09T11:50:35;23.60;91.30
19952;DHT22;10137;49.406;19.484;2022-09-09T11:53:19;23.50;90.50
19952;DHT22;10137;49.406;19.484;2022-09-09T11:56:05;23.50;90.60
19952;DHT22;10137;49.406;19.484;2022-09-09T11:58:37;23.50;90.50
19952;DHT22;10137;49.406;19.484;2022-09-09T12:01:27;23.40;90.00
19952;DHT22;10137;49.406;19.484;2022-09-09T12:04:14;23.40;89.70
19952;DHT22;10137;49.406;19.484;2022-09-09T12:06:46;23.50;91.00
19952;DHT22;10137;49.406;19.484;2022-09-09T12:09:22;23.60;90.90
19952;DHT22;10137;49.406;19.484;2022-09-09T12:11:51;23.50;90.70
19952;DHT22;10137;49.406;19.484;2022-09-09T12:14:35;23.40;91.10
19952;DHT22;10137;49.406;19.484;2022-09-09T12:17:20;23.40;90.70
19952;DHT22;10137;49.406;19.484;2022-09-09T12:20:01;23.50;91.30
19952;DHT22;10137;49.406;19.484;2022-09-09T12:22:37;23.50;91.70
19952;DHT22;10137;49.406;19.484;2022-09-09T12:25:20;23.70;92.20
19952;DHT22;10137;49.406;19.484;2022-09-09T12:27:59;23.70;91.20
19952;DHT22;10137;49.406;19.484;2022-09-09T12:30:29;23.60;92.60
19952;DHT22;10137;49.406;19.484;2022-09-09T12:33:10;23.50;92.90
19952;DHT22;10137;49.406;19.484;2022-09-09T12:35:42;23.40;98.10
19952;DHT22;10137;49.406;19.484;2022-09-09T12:38:15;23.40;95.10
19952;DHT22;10137;49.406;19.484;2022-09-09T12:40:54;23.40;93.00
19952;DHT22;10137;49.406;19.484;2022-09-09T12:43:23;23.30;93.90
19952;DHT22;10137;49.406;19.484;2022-09-09T12:45:57;23.20;92.30
19952;DHT22;10137;49.406;19.484;2022-09-09T12:48:32;23.20;91.70
19952;DHT22;10137;49.406;19.484;2022-09-09T12:51:01;23.20;92.70
19952;DHT22;10137;49.406;19.484;2022-09-09T12:53:32;23.20;93.20
19952;DHT22;10137;49.406;19.484;2022-09-09T12:56:02;23.20;94.10
19952;DHT22;10137;49.406;19.484;2022-09-09T12:58:32;23.20;93.70
19952;DHT22;10137;49.406;19.484;2022-09-09T13:01:04;23.20;93.90
19952;DHT22;10137;49.406;19.484;2022-09-09T13:03:42;23.30;92.90
19952;DHT22;10137;49.406;19.484;2022-09-09T13:06:13;23.30;91.80
19952;DHT22;10137;49.406;19.484;2022-09-09T13:08:42;23.20;90.90
19952;DHT22;10137;49.406;19.484;2022-09-09T13:11:12;23.10;91.20
19952;DHT22;10137;49.406;19.484;2022-09-09T13:13:43;23.20;91.80
19952;DHT22;10137;49.406;19.484;2022-09-09T13:16:21;23.20;92.30
19952;DHT22;10137;49.406;19.484;2022-09-09T13:18:51;23.30;91.30
19952;DHT22;10137;49.406;19.484;2022-09-09T13:21:18;23.20;91.10
19952;DHT22;10137;49.406;19.484;2022-09-09T13:23:50;23.20;90.20
19952;DHT22;10137;49.406;19.484;2022-09-09T13:26:23;23.20;90.00
19952;DHT22;10137;49.406;19.484;2022-09-09T13:28:52;23.20;90.00
19952;DHT22;10137;49.406;19.484;2022-09-09T13:31:22;23.20;90.10
19952;DHT22;10137;49.406;19.484;2022-09-09T13:33:50;23.20;88.70
19952;DHT22;10137;49.406;19.484;2022-09-09T13:36:27;23.20;89.00
19952;DHT22;10137;49.406;19.484;2022-09-09T13:38:57;23.20;89.00
19952;DHT22;10137;49.406;19.484;2022-09-09T13:41:29;23.20;88.70
19952;DHT22;10137;49.406;19.484;2022-09-09T13:43:58;23.20;87.80
19952;DHT22;10137;49.406;19.484;2022-09-09T13:46:30;23.10;87.20
19952;DHT22;10137;49.406;19.484;2022-09-09T13:49:01;23.00;86.60
19952;DHT22;10137;49.406;19.484;2022-09-09T13:51:33;22.90;88.50
19952;DHT22;10137;49.406;19.484;2022-09-09T13:54:05;22.80;87.80
19952;DHT22;10137;49.406;19.484;2022-09-09T13:56:33;22.80;87.10
19952;DHT22;10137;49.406;19.484;2022-09-09T13:59:01;22.80;88.10
19952;DHT22;10137;49.406;19.484;2022-09-09T14:01:28;22.80;87.90
19952;DHT22;10137;49.406;19.484;2022-09-09T14:03:55;22.80;88.50
19952;DHT22;10137;49.406;19.484;2022-09-09T14:06:24;22.80;88.50
19952;DHT22;10137;49.406;19.484;2022-09-09T14:08:51;22.80;85.80
19952;DHT22;10137;49.406;19.484;2022-09-09T14:11:20;22.80;87.10
19952;DHT22;10137;49.406;19.484;2022-09-09T14:13:49;22.80;87.20
19952;DHT22;10137;49.406;19.484;2022-09-09T14:16:16;22.70;86.60
19952;DHT22;10137;49.406;19.484;2022-09-09T14:18:44;22.80;87.90
19952;DHT22;10137;49.406;19.484;2022-09-09T14:21:11;22.80;86.50
19952;DHT22;10137;49.406;19.484;2022-09-09T14:23:40;22.70;86.80
19952;DHT22;10137;49.406;19.484;2022-09-09T14:26:08;22.70;87.10
19952;DHT22;10137;49.406;19.484;2022-09-09T14:28:37;22.60;85.70
19952;DHT22;10137;49.406;19.484;2022-09-09T14:31:07;22.60;85.60
19952;DHT22;10137;49.406;19.484;2022-09-09T14:33:37;22.50;85.10
19952;DHT22;10137;49.406;19.484;2022-09-09T14:36:07;22.50;86.50
19952;DHT22;10137;49.406;19.484;2022-09-09T14:38:39;22.40;86.00
19952;DHT22;10137;49.406;19.484;2022-09-09T14:41:09;22.40;86.10
19952;DHT22;10137;49.406;19.484;2022-09-09T14:43:37;22.30;86.60
19952;DHT22;10137;49.406;19.484;2022-09-09T14:46:05;22.20;86.70
19952;DHT22;10137;49.406;19.484;2022-09-09T14:48:32;22.20;86.00
19952;DHT22;10137;49.406;19.484;2022-09-09T14:51:05;22.20;86.40
19952;DHT22;10137;49.406;19.484;2022-09-09T14:53:32;22.20;86.80
19952;DHT22;10137;49.406;19.484;2022-09-09T14:56:05;22.20;86.50
19952;DHT22;10137;49.406;19.484;2022-09-09T14:58:33;22.30;85.40
19952;DHT22;10137;49.406;19.484;2022-09-09T15:01:04;22.20;84.30
19952;DHT22;10137;49.406;19.484;2022-09-09T15:03:32;22.20;84.40
19952;DHT22;10137;49.406;19.484;2022-09-09T15:06:04;22.20;86.20
19952;DHT22;10137;49.406;19.484;2022-09-09T15:08:30;22.10;84.80
19952;DHT22;10137;49.406;19.484;2022-09-09T15:10:59;22.00;85.20
19952;DHT22;10137;49.406;19.484;2022-09-09T15:13:28;22.00;87.60
19952;DHT22;10137;49.406;19.484;2022-09-09T15:15:54;21.90;89.90
19952;DHT22;10137;49.406;19.484;2022-09-09T15:18:23;22.00;90.80
19952;DHT22;10137;49.406;19.484;2022-09-09T15:20:51;21.90;91.00
19952;DHT22;10137;49.406;19.484;2022-09-09T15:23:18;21.80;91.10
19952;DHT22;10137;49.406;19.484;2022-09-09T15:25:52;21.80;91.10
19952;DHT22;10137;49.406;19.484;2022-09-09T15:28:19;21.80;90.90
19952;DHT22;10137;49.406;19.484;2022-09-09T15:30:49;21.80;94.00
19952;DHT22;10137;49.406;19.484;2022-09-09T15:33:17;21.80;98.70
19952;DHT22;10137;49.406;19.484;2022-09-09T15:35:44;21.80;99.90
19952;DHT22;10137;49.406;19.484;2022-09-09T15:38:11;21.70;99.90
19952;DHT22;10137;49.406;19.484;2022-09-09T15:40:40;21.70;99.90
19952;DHT22;10137;49.406;19.484;2022-09-09T15:43:08;21.60;99.90
19952;DHT22;10137;49.406;19.484;2022-09-09T15:45:36;21.60;99.90
19952;DHT22;10137;49.406;19.484;2022-09-09T15:48:04;21.60;99.90
19952;DHT22;10137;49.406;19.484;2022-09-09T15:50:31;21.60;99.90
19952;DHT22;10137;49.406;19.484;2022-09-09T15:52:58;21.50;99.90
19952;DHT22;10137;49.406;19.484;2022-09-09T15:55:25;21.50;99.90